Time;durP1;ratioP1;P1;durP2;ratioP2;P2;SDS_P1;SDS_P2;PMS_P1;PMS_P2;Temp;Humidity;BMP_temperature;BMP_pressure;BME280_temperature;BME280_humidity;BME280_pressure;Samples;Min_cycle;Max_cycle;Signal;HPM_P1;HPM_P2
2023/05/14 00:02:09;;;;;;;12.55;1.65;;;;;;;10.97;100.00;98391.31;4956310;28;20042;-60
2023/05/14 00:04:39;;;;;;;4.07;1.23;;;;;;;10.82;100.00;98364.22;4961773;28;20039;-59
2023/05/14 00:07:05;;;;;;;2.75;1.00;;;;;;;10.95;100.00;98381.06;4974488;28;20019;-61
2023/05/14 00:09:34;;;;;;;3.72;1.10;;;;;;;10.70;100.00;98342.84;4975151;28;20067;-61
2023/05/14 00:12:00;;;;;;;;;;;;;;;10.93;100.00;98379.56;4978255;28;20073;-59
2023/05/14 00:14:25;;;;;;;3.65;1.13;;;;;;;10.60;100.00;98345.53;4975800;28;20056;-62
2023/05/14 00:16:51;;;;;;;3.15;0.90;;;;;;;10.70;100.00;98338.47;4975821;28;20030;-59
2023/05/14 00:19:16;;;;;;;3.08;1.00;;;;;;;11.00;100.00;98371.97;4961802;28;20693;-62
2023/05/14 00:21:44;;;;;;;3.75;1.40;;;;;;;10.84;100.00;98363.13;4977577;28;20050;-59
2023/05/14 00:24:15;;;;;;;3.40;1.50;;;;;;;10.98;100.00;98366.13;4978960;28;20078;-62
2023/05/14 00:26:52;;;;;;;3.92;1.17;;;;;;;11.04;100.00;98370.69;4992379;28;20047;-60
2023/05/14 00:29:25;;;;;;;3.40;1.27;;;;;;;11.01;100.00;98363.22;4962339;28;20540;-60
2023/05/14 00:31:50;;;;;;;2.78;1.08;;;;;;;11.02;100.00;98368.25;4981418;28;20568;-61
2023/05/14 00:34:26;;;;;;;3.97;1.48;;;;;;;10.94;100.00;98363.81;4958571;28;20041;-59
2023/05/14 00:36:52;;;;;;;3.17;1.23;;;;;;;11.00;100.00;98359.78;4991778;28;20370;-60
2023/05/14 00:39:17;;;;;;;4.55;1.60;;;;;;;10.99;100.00;98357.31;4978399;28;20093;-62
2023/05/14 00:41:51;;;;;;;4.00;1.60;;;;;;;10.98;100.00;98347.91;4980007;28;21558;-61
2023/05/14 00:44:17;;;;;;;3.97;1.50;;;;;;;10.99;100.00;98349.53;4971447;28;20034;-61
2023/05/14 00:46:49;;;;;;;5.55;1.60;;;;;;;11.01;100.00;98353.63;4977168;28;20100;-60
2023/05/14 00:49:17;;;;;;;4.30;1.75;;;;;;;11.01;100.00;98343.22;4973126;28;20052;-60
2023/05/14 00:51:45;;;;;;;4.20;1.58;;;;;;;11.02;100.00;98341.41;4973126;28;20283;-60
2023/05/14 00:54:15;;;;;;;4.78;1.85;;;;;;;11.02;100.00;98344.03;4967776;28;20069;-60
2023/05/14 00:56:46;;;;;;;3.60;1.70;;;;;;;10.98;100.00;98338.31;4963147;28;20061;-59
2023/05/14 00:59:12;;;;;;;4.47;1.83;;;;;;;10.85;100.00;98306.69;5009014;28;20039;-61
2023/05/14 01:02:01;;;;;;;4.22;1.92;;;;;;;11.02;100.00;98339.63;4976937;28;21205;-60
2023/05/14 01:04:27;;;;;;;4.22;2.00;;;;;;;10.96;100.00;98340.25;4971341;28;20126;-59
2023/05/14 01:07:11;;;;;;;5.63;2.20;;;;;;;11.02;100.00;98334.41;4965454;28;20042;-59
2023/05/14 01:09:54;;;;;;;5.78;2.13;;;;;;;10.99;100.00;98334.75;4975946;28;20046;-60
2023/05/14 01:12:43;;;;;;;5.10;2.30;;;;;;;10.97;100.00;98328.88;4981315;28;20157;-59
2023/05/14 01:15:32;;;;;;;4.15;2.00;;;;;;;10.92;100.00;98318.13;4970380;28;20558;-60
2023/05/14 01:18:10;;;;;;;4.28;1.92;;;;;;;11.01;100.00;98334.59;4978204;28;20029;-60
2023/05/14 01:20:38;;;;;;;5.55;2.20;;;;;;;11.08;100.00;98330.38;4963574;28;20443;-59
2023/05/14 01:23:08;;;;;;;4.22;2.30;;;;;;;10.84;100.00;98284.25;4965112;28;20117;-60
2023/05/14 01:25:34;;;;;;;4.75;2.08;;;;;;;10.97;100.00;98318.47;4960287;28;20067;-59
2023/05/14 01:28:16;;;;;;;4.65;2.42;;;;;;;10.76;100.00;98269.41;4975526;28;20210;-60
2023/05/14 01:30:52;;;;;;;4.95;2.60;;;;;;;10.72;100.00;98287.13;4963616;28;20038;-59
2023/05/14 01:33:21;;;;;;;6.32;2.75;;;;;;;10.99;100.00;98321.75;4958336;28;20031;-60
2023/05/14 01:35:52;;;;;;;5.20;2.63;;;;;;;10.99;100.00;98316.53;4975219;28;20041;-59
2023/05/14 01:38:22;;;;;;;6.13;2.97;;;;;;;11.00;100.00;98310.34;4979789;28;20030;-61
2023/05/14 01:40:52;;;;;;;4.30;2.63;;;;;;;10.72;100.00;98271.50;4975886;28;20039;-60
2023/05/14 01:43:23;;;;;;;6.85;2.58;;;;;;;10.92;100.00;98302.53;4971595;28;20102;-59
2023/05/14 01:45:54;;;;;;;4.82;2.78;;;;;;;10.66;100.00;98263.50;4982992;28;20096;-59
2023/05/14 01:48:19;;;;;;;5.75;3.08;;;;;;;10.98;100.00;98307.09;4971018;28;20096;-60
2023/05/14 01:50:50;;;;;;;5.22;2.85;;;;;;;11.08;100.00;98297.41;4974865;28;20380;-60
2023/05/14 01:53:18;;;;;;;4.88;2.50;;;;;;;11.10;100.00;98286.84;4973363;28;20027;-60
2023/05/14 01:55:43;;;;;;;4.60;2.60;;;;;;;11.24;100.00;98298.44;4963211;28;20050;-60
2023/05/14 01:58:14;;;;;;;4.50;2.50;;;;;;;11.27;100.00;98288.53;4976993;28;20057;-60
2023/05/14 02:00:41;;;;;;;5.07;2.55;;;;;;;11.41;100.00;98288.88;4980001;28;20133;-60
2023/05/14 02:03:07;;;;;;;5.45;2.33;;;;;;;11.41;100.00;98297.53;4971314;28;20108;-61
2023/05/14 02:05:32;;;;;;;4.63;2.30;;;;;;;11.34;100.00;98289.53;4973342;28;20642;-60
2023/05/14 02:08:03;;;;;;;5.65;2.00;;;;;;;11.33;100.00;98294.88;4980063;28;20437;-61
2023/05/14 02:10:33;;;;;;;4.38;1.80;;;;;;;11.37;100.00;98275.38;4977918;28;20042;-60
2023/05/14 02:12:58;;;;;;;3.60;1.42;;;;;;;11.43;100.00;98284.38;4979325;28;20157;-59
2023/05/14 02:15:32;;;;;;;4.50;1.58;;;;;;;11.46;100.00;98284.03;4977947;28;20160;-60
2023/05/14 02:17:58;;;;;;;3.70;1.58;;;;;;;11.49;100.00;98275.91;4976043;28;20026;-59
2023/05/14 02:20:26;;;;;;;6.70;1.60;;;;;;;11.54;100.00;98274.44;4977030;28;20191;-60
2023/05/14 02:22:55;;;;;;;3.50;1.60;;;;;;;11.53;100.00;98278.03;4979853;28;20034;-59
2023/05/14 02:25:23;;;;;;;4.13;1.50;;;;;;;11.57;100.00;98275.91;4975689;28;20784;-60
2023/05/14 02:27:49;;;;;;;4.80;1.70;;;;;;;11.46;100.00;98276.22;4959504;28;20041;-59
2023/05/14 02:30:15;;;;;;;3.90;1.23;;;;;;;11.28;100.00;98237.28;4978911;28;20123;-61
2023/05/14 02:32:40;;;;;;;3.50;1.52;;;;;;;11.49;100.00;98271.50;4975185;28;20045;-61
2023/05/14 02:35:11;;;;;;;3.03;1.20;;;;;;;11.46;100.00;98258.81;4972175;28;20045;-60
2023/05/14 02:37:37;;;;;;;3.28;1.13;;;;;;;11.50;100.00;98265.34;4978162;28;20022;-60
2023/05/14 02:40:03;;;;;;;3.58;1.30;;;;;;;11.54;100.00;98251.03;4969680;28;20042;-59
2023/05/14 02:42:31;;;;;;;3.20;1.40;;;;;;;11.58;100.00;98250.72;4979058;28;20030;-60
2023/05/14 02:45:02;;;;;;;3.17;1.20;;;;;;;11.44;100.00;98252.94;4958223;28;20027;-59
2023/05/14 02:47:34;;;;;;;5.22;1.38;;;;;;;11.41;100.00;98242.88;4982067;28;20026;-59
2023/05/14 02:50:05;;;;;;;3.50;1.20;;;;;;;11.49;100.00;98250.69;4986039;28;20035;-59
2023/05/14 02:52:36;;;;;;;3.30;1.38;;;;;;;11.55;100.00;98246.63;4962917;28;20035;-60
2023/05/14 02:55:02;;;;;;;4.18;1.13;;;;;;;11.50;100.00;98254.13;4963862;28;20259;-60
2023/05/14 02:57:35;;;;;;;4.28;1.30;;;;;;;11.41;100.00;98255.88;4978725;28;20719;-59
2023/05/14 03:00:12;;;;;;;3.55;1.20;;;;;;;11.43;100.00;98261.75;4961172;28;20129;-60
2023/05/14 03:02:38;;;;;;;2.95;1.20;;;;;;;11.51;100.00;98242.72;4970088;28;20031;-60
2023/05/14 03:05:09;;;;;;;3.00;1.20;;;;;;;11.45;100.00;98249.38;4971629;28;20084;-60
2023/05/14 03:07:40;;;;;;;6.03;1.50;;;;;;;11.25;100.00;98215.00;4963092;28;20030;-60
2023/05/14 03:10:13;;;;;;;4.20;1.27;;;;;;;11.57;100.00;98247.28;4976342;28;20042;-60
2023/05/14 03:12:38;;;;;;;3.40;1.20;;;;;;;11.50;100.00;98251.50;4974597;28;20069;-59
2023/05/14 03:15:10;;;;;;;2.50;1.05;;;;;;;11.46;100.00;98252.78;4981929;28;20360;-59
2023/05/14 03:17:39;;;;;;;2.65;1.05;;;;;;;11.53;100.00;98251.19;4980053;28;20034;-60
2023/05/14 03:20:05;;;;;;;5.25;1.30;;;;;;;11.23;100.00;98214.34;4972205;28;20026;-59
2023/05/14 03:22:41;;;;;;;3.65;1.33;;;;;;;11.15;100.00;98212.53;4981238;28;20037;-59
2023/05/14 03:25:11;;;;;;;3.50;1.30;;;;;;;11.37;100.00;98240.72;4965894;28;20062;-59
2023/05/14 03:27:37;;;;;;;4.45;1.23;;;;;;;11.39;100.00;98236.16;4980197;28;20117;-60
2023/05/14 03:30:06;;;;;;;3.17;1.23;;;;;;;11.35;100.00;98240.88;4980807;28;20400;-59
2023/05/14 03:32:31;;;;;;;3.13;1.25;;;;;;;11.29;100.00;98229.31;4974728;28;20109;-58
2023/05/14 03:34:57;;;;;;;4.53;1.52;;;;;;;11.33;100.00;98242.81;4975878;28;20084;-61
2023/05/14 03:37:28;;;;;;;3.47;1.50;;;;;;;11.34;100.00;98239.25;4963265;28;20066;-59
2023/05/14 03:39:53;;;;;;;5.55;1.95;;;;;;;11.37;100.00;98238.13;4980888;28;20309;-60
2023/05/14 03:42:22;;;;;;;4.20;1.58;;;;;;;11.30;100.00;98230.97;4979481;28;20061;-59
2023/05/14 03:44:50;;;;;;;4.22;1.80;;;;;;;11.36;100.00;98232.09;4971209;28;20493;-60
2023/05/14 03:47:21;;;;;;;3.70;1.73;;;;;;;11.36;100.00;98226.91;4965310;28;20049;-59
2023/05/14 03:49:48;;;;;;;3.90;1.95;;;;;;;11.29;100.00;98234.53;4977684;28;20154;-59
2023/05/14 03:52:22;;;;;;;4.50;1.90;;;;;;;11.25;100.00;98233.22;4977716;28;20093;-60
2023/05/14 03:54:48;;;;;;;3.78;1.40;;;;;;;11.28;100.00;98229.47;4977825;28;20035;-60
2023/05/14 03:57:23;;;;;;;3.85;1.60;;;;;;;11.24;100.00;98215.97;4957999;28;20417;-60
2023/05/14 03:59:48;;;;;;;4.53;1.40;;;;;;;11.26;100.00;98232.25;4978044;28;20561;-60
2023/05/14 04:02:17;;;;;;;3.75;1.55;;;;;;;11.32;100.00;98234.22;4966629;28;20034;-59
2023/05/14 04:04:47;;;;;;;4.35;1.52;;;;;;;11.34;100.00;98234.88;4981455;28;20026;-59
2023/05/14 04:07:22;;;;;;;5.22;1.60;;;;;;;11.08;100.00;98190.72;4974109;28;20040;-59
2023/05/14 04:09:52;;;;;;;4.45;1.65;;;;;;;11.45;100.00;98235.56;4978649;28;20035;-59
2023/05/14 04:12:17;;;;;;;3.58;1.45;;;;;;;11.22;100.00;98215.31;4982151;28;20109;-59
2023/05/14 04:14:44;;;;;;;3.38;1.40;;;;;;;11.27;100.00;98231.25;4977108;28;20057;-61
2023/05/14 04:17:11;;;;;;;4.10;1.70;;;;;;;11.26;100.00;98228.81;4981721;28;20116;-60
2023/05/14 04:19:42;;;;;;;3.60;1.50;;;;;;;11.23;100.00;98229.16;4978849;28;20039;-59
2023/05/14 04:22:10;;;;;;;3.85;1.42;;;;;;;11.19;100.00;98220.84;4977944;28;20121;-62
2023/05/14 04:24:39;;;;;;;3.22;1.45;;;;;;;11.30;100.00;98227.53;4988258;28;20086;-59
2023/05/14 04:27:07;;;;;;;3.90;1.52;;;;;;;10.94;100.00;98160.09;5007370;28;20737;-59
2023/05/14 04:29:32;;;;;;;3.67;1.50;;;;;;;11.19;100.00;98187.00;4981501;28;20038;-59
2023/05/14 04:32:00;;;;;;;3.63;1.50;;;;;;;11.43;100.00;98230.50;4991258;28;20034;-59
2023/05/14 04:34:25;;;;;;;5.97;1.75;;;;;;;11.38;100.00;98231.94;4963311;28;20796;-59
2023/05/14 04:36:51;;;;;;;4.35;1.60;;;;;;;11.35;100.00;98231.31;4983209;28;20515;-59
2023/05/14 04:39:20;;;;;;;4.60;1.80;;;;;;;11.47;100.00;98228.41;4978701;28;20027;-59
2023/05/14 04:41:45;;;;;;;4.45;1.77;;;;;;;11.18;100.00;98185.38;4960876;28;20022;-59
2023/05/14 04:44:11;;;;;;;5.63;1.80;;;;;;;11.51;100.00;98234.91;4972317;28;20034;-61
2023/05/14 04:46:40;;;;;;;4.47;2.00;;;;;;;11.51;100.00;98232.31;4977431;28;20026;-60
2023/05/14 04:49:08;;;;;;;3.88;1.70;;;;;;;11.59;100.00;98229.72;4977773;28;20037;-59
2023/05/14 04:51:36;;;;;;;4.50;1.92;;;;;;;11.61;100.00;98230.38;4974458;28;20100;-59
2023/05/14 04:54:03;;;;;;;4.13;1.95;;;;;;;11.59;100.00;98234.09;4979130;28;20047;-59
2023/05/14 04:56:34;;;;;;;4.30;1.88;;;;;;;11.41;100.00;98196.00;4974431;28;20034;-59
2023/05/14 04:59:03;;;;;;;5.20;1.98;;;;;;;11.59;100.00;98221.91;4978373;28;20038;-59
2023/05/14 05:01:28;;;;;;;5.03;1.73;;;;;;;11.66;100.00;98225.50;4972241;28;20040;-60
2023/05/14 05:03:54;;;;;;;4.07;2.08;;;;;;;11.64;100.00;98219.63;4978157;28;20034;-59
2023/05/14 05:06:22;;;;;;;4.07;1.67;;;;;;;11.71;100.00;98231.03;4972866;28;20072;-60
2023/05/14 05:08:48;;;;;;;3.95;1.80;;;;;;;11.72;100.00;98227.44;4961400;28;20069;-59
2023/05/14 05:11:13;;;;;;;4.72;1.90;;;;;;;11.69;100.00;98222.56;4972949;28;20117;-59
2023/05/14 05:13:41;;;;;;;5.38;1.80;;;;;;;11.73;100.00;98226.47;4959493;28;20307;-59
2023/05/14 05:16:15;;;;;;;3.75;1.75;;;;;;;11.64;100.00;98218.81;4973763;28;20030;-60
2023/05/14 05:18:45;;;;;;;3.63;1.67;;;;;;;11.65;100.00;98216.06;4976443;28;20825;-60
2023/05/14 05:21:15;;;;;;;5.82;1.92;;;;;;;11.67;100.00;98223.72;4959300;28;20563;-59
2023/05/14 05:23:41;;;;;;;4.47;1.88;;;;;;;11.53;100.00;98212.94;4971273;28;20054;-60
2023/05/14 05:26:06;;;;;;;4.75;1.98;;;;;;;11.59;100.00;98215.88;4979473;28;20176;-59
2023/05/14 05:28:36;;;;;;;3.90;1.75;;;;;;;11.65;100.00;98220.47;4970134;28;20031;-60
2023/05/14 05:31:02;;;;;;;6.53;1.88;;;;;;;11.35;100.00;98191.41;4993104;28;20038;-59
2023/05/14 05:33:30;;;;;;;4.75;1.40;;;;;;;11.24;100.00;98226.38;4972521;28;20034;-61
2023/05/14 05:35:55;;;;;;;3.65;1.55;;;;;;;11.18;100.00;98218.41;4995372;28;20037;-60
2023/05/14 05:38:33;;;;;;;4.75;2.28;;;;;;;11.30;100.00;98222.34;4976433;28;20457;-60
2023/05/14 05:41:03;;;;;;;3.90;1.70;;;;;;;11.35;100.00;98223.50;4977052;28;20068;-60
2023/05/14 05:43:33;;;;;;;5.20;2.10;;;;;;;11.37;100.00;98220.72;4970579;28;20036;-59
2023/05/14 05:46:02;;;;;;;3.65;1.80;;;;;;;11.29;100.00;98218.09;4973841;28;20022;-61
2023/05/14 05:48:32;;;;;;;3.70;1.70;;;;;;;11.03;100.00;98174.75;4961157;28;20046;-59
2023/05/14 05:51:01;;;;;;;5.65;1.80;;;;;;;11.26;100.00;98211.44;4977270;28;20097;-59
2023/05/14 05:53:26;;;;;;;3.90;1.70;;;;;;;11.37;100.00;98223.31;4978321;28;20382;-59
2023/05/14 05:55:54;;;;;;;3.95;1.75;;;;;;;11.28;100.00;98211.25;4964478;28;20086;-59
2023/05/14 05:58:20;;;;;;;3.67;1.80;;;;;;;11.39;100.00;98216.19;4972341;28;20089;-59
2023/05/14 06:00:48;;;;;;;5.38;1.90;;;;;;;11.10;100.00;98169.75;4970415;28;20050;-58
2023/05/14 06:03:20;;;;;;;5.13;1.80;;;;;;;11.33;100.00;98207.22;4978889;28;20034;-59
2023/05/14 06:05:51;;;;;;;5.45;2.40;;;;;;;11.01;100.00;98165.50;4971661;28;20043;-60
2023/05/14 06:08:19;;;;;;;4.43;2.17;;;;;;;11.04;100.00;98155.56;4970669;28;20340;-60
2023/05/14 06:10:48;;;;;;;3.90;1.90;;;;;;;11.50;100.00;98207.25;4969886;28;20109;-59
2023/05/14 06:13:18;;;;;;;4.75;2.10;;;;;;;11.44;100.00;98206.06;4974968;28;20285;-58
2023/05/14 06:15:51;;;;;;;5.25;2.28;;;;;;;11.50;100.00;98212.47;4977850;28;20046;-59
2023/05/14 06:18:19;;;;;;;4.10;2.10;;;;;;;11.34;100.00;98180.19;4974285;28;20058;-59
2023/05/14 06:20:44;;;;;;;4.43;2.20;;;;;;;11.64;100.00;98211.00;4976405;28;20034;-58
2023/05/14 06:23:11;;;;;;;4.10;2.20;;;;;;;11.71;100.00;98207.59;4969134;28;20049;-59
2023/05/14 06:25:36;;;;;;;4.63;1.92;;;;;;;11.83;100.00;98196.88;4970935;28;20109;-59
2023/05/14 06:28:04;;;;;;;5.35;2.35;;;;;;;11.85;100.00;98203.53;4965970;28;20026;-59
2023/05/14 06:30:30;;;;;;;5.28;2.40;;;;;;;11.85;100.00;98192.31;4974576;28;20044;-60
2023/05/14 06:32:55;;;;;;;5.10;2.15;;;;;;;11.93;100.00;98200.94;4977215;28;20038;-58
2023/05/14 06:35:23;;;;;;;4.20;2.08;;;;;;;11.82;100.00;98154.34;4977999;28;20038;-59
2023/05/14 06:37:54;;;;;;;4.85;2.10;;;;;;;11.93;100.00;98194.94;4969492;28;20027;-60
2023/05/14 06:40:24;;;;;;;4.28;2.00;;;;;;;11.70;100.00;98142.63;4973964;28;20060;-59
2023/05/14 06:42:50;;;;;;;4.22;2.00;;;;;;;12.06;100.00;98194.44;4992789;28;20046;-59
2023/05/14 06:45:15;;;;;;;4.50;2.08;;;;;;;12.09;100.00;98183.69;4977611;28;20030;-59
2023/05/14 06:47:52;;;;;;;4.35;1.95;;;;;;;12.19;100.00;98191.31;4952701;28;20139;-59
2023/05/14 06:50:20;;;;;;;4.40;1.92;;;;;;;12.14;100.00;98191.00;4980466;28;20030;-59
2023/05/14 06:52:48;;;;;;;4.18;1.77;;;;;;;12.20;100.00;98182.53;4976298;28;20142;-59
2023/05/14 06:55:16;;;;;;;5.47;2.00;;;;;;;12.22;100.00;98183.97;4962723;28;20041;-61
2023/05/14 06:57:45;;;;;;;4.28;1.70;;;;;;;12.20;100.00;98187.75;4987254;28;20042;-58
2023/05/14 07:00:11;;;;;;;3.90;1.90;;;;;;;12.11;100.00;98179.94;4971576;28;20038;-59
2023/05/14 07:02:38;;;;;;;5.22;2.20;;;;;;;12.18;100.00;98193.13;4977599;28;20033;-59
2023/05/14 07:05:22;;;;;;;4.82;2.05;;;;;;;12.29;100.00;98176.31;4971937;28;20035;-60
2023/05/14 07:07:49;;;;;;;4.57;1.60;;;;;;;12.33;100.00;98179.41;4973995;28;20053;-59
2023/05/14 07:10:18;;;;;;;4.40;2.13;;;;;;;12.45;100.00;98178.91;4970256;28;20030;-59
2023/05/14 07:12:46;;;;;;;3.88;1.85;;;;;;;12.34;100.00;98184.47;4980963;28;20038;-60
2023/05/14 07:15:14;;;;;;;4.03;1.77;;;;;;;12.40;100.00;98172.56;4975964;28;20046;-59
2023/05/14 07:17:42;;;;;;;5.18;2.00;;;;;;;12.47;100.00;98176.13;4979682;28;20034;-59
2023/05/14 07:20:16;;;;;;;5.32;1.75;;;;;;;12.23;100.00;98135.25;4977215;28;20038;-58
2023/05/14 07:22:41;;;;;;;4.63;1.92;;;;;;;12.31;100.00;98171.75;4973058;28;20031;-59
2023/05/14 07:25:10;;;;;;;3.92;1.85;;;;;;;12.43;100.00;98167.00;4971704;28;20931;-60
2023/05/14 07:27:35;;;;;;;3.78;1.70;;;;;;;12.54;100.00;98165.81;4964186;28;20035;-59
2023/05/14 07:30:06;;;;;;;3.75;1.73;;;;;;;12.59;100.00;98158.31;4962536;28;20049;-59
2023/05/14 07:32:40;;;;;;;4.10;1.77;;;;;;;12.30;100.00;98113.59;4976919;28;20034;-59
2023/05/14 07:35:05;;;;;;;4.00;1.70;;;;;;;12.73;100.00;98162.81;4962587;28;20412;-60
2023/05/14 07:37:31;;;;;;;4.00;1.83;;;;;;;12.67;100.00;98171.34;4975377;28;20034;-59
2023/05/14 07:39:59;;;;;;;3.80;1.65;;;;;;;12.64;100.00;98166.44;4959967;28;20030;-59
2023/05/14 07:42:25;;;;;;;3.40;1.52;;;;;;;12.58;100.00;98164.53;4976396;28;20112;-59
2023/05/14 07:44:51;;;;;;;3.88;1.70;;;;;;;12.66;100.00;98152.25;4985167;28;20400;-59
2023/05/14 07:47:20;;;;;;;3.65;1.52;;;;;;;12.41;100.00;98117.63;4973466;28;20034;-59
2023/05/14 07:49:53;;;;;;;4.57;1.77;;;;;;;12.68;100.00;98159.91;4978147;28;20030;-59
2023/05/14 07:52:21;;;;;;;3.75;1.55;;;;;;;12.71;100.00;98164.00;4982028;28;20076;-60
2023/05/14 07:54:50;;;;;;;4.63;1.70;;;;;;;12.84;100.00;98157.22;4963106;28;20105;-60
2023/05/14 07:57:19;;;;;;;4.43;1.85;;;;;;;12.87;100.00;98163.91;4967610;28;20034;-59
2023/05/14 07:59:47;;;;;;;4.95;2.03;;;;;;;12.71;100.00;98111.81;4968340;28;20030;-59
2023/05/14 08:02:15;;;;;;;3.38;1.50;;;;;;;13.03;100.00;98158.63;4975526;28;20852;-61
2023/05/14 08:04:53;;;;;;;3.42;1.48;;;;;;;13.07;100.00;98156.47;4980125;28;20812;-60
2023/05/14 08:07:18;;;;;;;3.75;1.58;;;;;;;12.69;100.00;98119.81;4990820;28;20038;-59
2023/05/14 08:09:49;;;;;;;4.15;1.50;;;;;;;13.03;100.00;98142.13;4976070;28;20453;-60
2023/05/14 08:12:17;;;;;;;3.90;1.30;;;;;;;13.00;100.00;98134.66;4930278;28;20071;-59
2023/05/14 08:14:42;;;;;;;4.47;1.40;;;;;;;13.06;100.00;98141.78;4970116;28;20035;-59
2023/05/14 08:17:11;;;;;;;2.97;1.20;;;;;;;13.15;100.00;98130.31;4968285;28;20033;-60
2023/05/14 08:19:36;;;;;;;2.85;1.10;;;;;;;12.93;100.00;98100.59;4956027;28;20054;-60
2023/05/14 08:22:09;;;;;;;3.28;1.30;;;;;;;13.22;100.00;98128.63;4960970;28;20068;-60
2023/05/14 08:24:44;;;;;;;2.85;1.15;;;;;;;13.33;100.00;98127.47;4969998;28;20096;-60
2023/05/14 08:27:13;;;;;;;2.97;1.23;;;;;;;13.07;100.00;98081.59;4973062;28;20038;-60
2023/05/14 08:29:38;;;;;;;2.95;1.10;;;;;;;13.27;100.00;98123.72;4954474;28;20483;-59
2023/05/14 08:32:07;;;;;;;3.60;1.40;;;;;;;13.18;100.00;98092.59;4998280;28;20041;-59
2023/05/14 08:34:38;;;;;;;3.80;1.50;;;;;;;13.41;100.00;98132.59;4974374;28;20095;-59
2023/05/14 08:37:03;;;;;;;3.58;1.20;;;;;;;13.60;100.00;98122.69;4977864;28;20088;-59
2023/05/14 08:39:31;;;;;;;2.90;1.10;;;;;;;13.73;100.00;98119.50;4961420;28;20068;-60
2023/05/14 08:41:56;;;;;;;3.20;1.30;;;;;;;13.78;100.00;98123.19;4983973;28;20392;-58
2023/05/14 08:44:56;;;;;;;3.83;1.48;;;;;;;13.77;100.00;98123.38;4981941;28;20061;-60
2023/05/14 08:47:22;;;;;;;3.42;1.30;;;;;;;13.68;100.00;98120.00;4979322;28;20081;-59
2023/05/14 08:50:00;;;;;;;4.25;1.08;;;;;;;13.55;100.00;98125.03;4979888;28;20041;-59
2023/05/14 08:52:31;;;;;;;3.22;1.10;;;;;;;13.48;100.00;98080.50;4967676;28;20034;-59
2023/05/14 08:55:03;;;;;;;2.85;1.00;;;;;;;13.58;100.00;98077.63;4959339;28;20045;-59
2023/05/14 08:57:30;;;;;;;3.28;1.10;;;;;;;13.86;100.00;98116.28;4955650;28;20018;-59
2023/05/14 09:00:00;;;;;;;4.45;1.50;;;;;;;13.76;100.00;98116.50;4977042;28;21503;-59
2023/05/14 09:02:32;;;;;;;3.25;1.25;;;;;;;13.98;100.00;98113.03;4989945;28;20511;-59
2023/05/14 09:05:10;;;;;;;2.50;0.90;;;;;;;14.11;100.00;98094.13;4972024;28;21301;-59
2023/05/14 09:07:35;;;;;;;3.03;1.00;;;;;;;13.99;100.00;98065.00;4986732;28;20026;-59
2023/05/14 09:10:04;;;;;;;3.75;1.30;;;;;;;14.43;100.00;98106.00;4982413;28;20388;-59
2023/05/14 09:12:37;;;;;;;2.53;1.10;;;;;;;14.68;100.00;98097.91;4983095;28;20026;-59
2023/05/14 09:15:10;;;;;;;2.90;1.00;;;;;;;14.80;100.00;98106.91;4976635;28;20034;-60
2023/05/14 09:17:36;;;;;;;2.88;1.00;;;;;;;14.54;100.00;98059.44;4976781;28;20034;-59
2023/05/14 09:20:10;;;;;;;3.40;1.30;;;;;;;15.14;100.00;98102.00;4983146;28;20471;-60
2023/05/14 09:22:37;;;;;;;2.83;1.02;;;;;;;15.09;100.00;98083.44;4981094;28;20030;-59
2023/05/14 09:25:22;;;;;;;4.15;1.10;;;;;;;14.79;100.00;98088.75;4977622;28;20354;-59
2023/05/14 09:27:53;;;;;;;4.28;1.30;;;;;;;14.87;100.00;98070.31;4976590;28;20026;-59
2023/05/14 09:30:18;;;;;;;3.50;1.20;;;;;;;15.00;100.00;98074.88;4987092;28;20479;-58
2023/05/14 09:32:56;;;;;;;2.50;0.90;;;;;;;15.01;100.00;98084.38;4973209;28;20049;-59
2023/05/14 09:35:24;;;;;;;1.77;0.70;;;;;;;15.03;100.00;98077.13;4983199;28;20034;-59
2023/05/14 09:37:52;;;;;;;3.03;1.00;;;;;;;14.96;100.00;98073.63;4989005;28;20026;-58
2023/05/14 09:40:21;;;;;;;2.72;1.00;;;;;;;14.75;100.00;98024.72;4962341;28;20077;-60
2023/05/14 09:42:50;;;;;;;2.65;0.80;;;;;;;14.84;100.00;98067.25;4962081;28;20042;-58
2023/05/14 09:45:19;;;;;;;2.20;0.90;;;;;;;14.84;100.00;98062.03;4977810;28;20034;-58
2023/05/14 09:47:54;;;;;;;2.15;0.90;;;;;;;14.90;100.00;98061.31;4975188;28;20038;-59
2023/05/14 09:50:20;;;;;;;2.13;0.90;;;;;;;14.79;100.00;98062.59;4975537;28;20066;-58
2023/05/14 09:52:54;;;;;;;2.60;1.00;;;;;;;14.82;100.00;98056.16;4975067;28;20089;-59
2023/05/14 09:55:22;;;;;;;4.00;0.93;;;;;;;14.98;98.85;98050.69;4988145;28;20034;-58
2023/05/14 09:57:50;;;;;;;1.88;0.70;;;;;;;14.96;100.00;98008.19;4978111;28;20030;-59
2023/05/14 10:00:18;;;;;;;2.85;0.70;;;;;;;15.44;95.44;98045.06;4991057;28;20412;-59
2023/05/14 10:03:05;;;;;;;1.67;0.70;;;;;;;15.15;91.15;98004.94;4976477;28;20038;-60
2023/05/14 10:05:41;;;;;;;1.35;0.60;;;;;;;15.24;90.81;98018.72;4969900;28;20720;-58
2023/05/14 10:08:23;;;;;;;2.40;0.70;;;;;;;15.10;89.10;97999.47;4970103;28;20027;-59
2023/05/14 10:11:00;;;;;;;2.28;0.70;;;;;;;15.36;91.90;98019.00;4970688;28;20085;-59
2023/05/14 10:13:39;;;;;;;3.72;0.90;;;;;;;15.30;89.94;98017.16;4967796;28;20056;-59
2023/05/14 10:16:19;;;;;;;2.15;0.80;;;;;;;15.06;90.98;97974.66;4966547;28;20035;-58
2023/05/14 10:18:47;;;;;;;;;;;;;;;15.43;89.77;98014.63;4952365;28;20213;-59
2023/05/14 10:21:18;;;;;;;2.75;0.90;;;;;;;15.37;88.32;98003.09;4997714;28;19996;-59
2023/05/14 10:23:45;;;;;;;1.50;0.63;;;;;;;15.64;90.64;97999.84;4962004;28;20681;-58
2023/05/14 10:26:12;;;;;;;1.88;0.70;;;;;;;15.57;86.89;97937.75;4949519;28;20172;-59
2023/05/14 10:28:41;;;;;;;2.38;0.80;;;;;;;15.89;86.05;97989.75;4984326;28;20128;-60
2023/05/14 10:31:12;;;;;;;1.50;0.65;;;;;;;15.89;85.06;97990.53;4964174;28;20104;-58
2023/05/14 10:33:49;;;;;;;3.33;1.13;;;;;;;16.06;82.87;97977.94;4965254;28;20027;-59
2023/05/14 10:36:22;;;;;;;1.67;0.60;;;;;;;15.89;82.21;97943.34;4966507;28;20031;-59
2023/05/14 10:38:57;;;;;;;2.35;0.85;;;;;;;15.96;80.87;97951.25;4954929;28;20104;-59
2023/05/14 10:41:28;;;;;;;2.58;0.60;;;;;;;16.04;82.60;97973.88;4962571;28;20042;-58
2023/05/14 10:43:59;;;;;;;1.80;0.50;;;;;;;16.18;80.54;97969.50;4957270;28;20047;-58
2023/05/14 10:46:28;;;;;;;2.38;0.70;;;;;;;16.09;82.23;97968.88;4965665;28;20696;-60
2023/05/14 10:48:53;;;;;;;1.88;0.70;;;;;;;16.27;80.54;97971.75;4967599;28;20500;-59
2023/05/14 10:51:24;;;;;;;2.20;0.70;;;;;;;16.30;79.12;97971.38;4950720;28;20346;-57
2023/05/14 10:53:51;;;;;;;2.15;0.70;;;;;;;16.41;78.08;97956.03;4968380;28;20037;-59
2023/05/14 10:56:22;;;;;;;1.90;0.70;;;;;;;16.37;79.79;97965.31;4971580;28;20624;-59
2023/05/14 10:58:51;;;;;;;1.98;0.70;;;;;;;16.26;79.41;97924.72;4979115;28;20547;-59
2023/05/14 11:01:26;;;;;;;2.40;0.90;;;;;;;16.48;77.68;97952.44;4967985;28;20030;-58
2023/05/14 11:03:57;;;;;;;3.53;1.10;;;;;;;16.63;77.43;97933.91;4980193;28;20476;-59
2023/05/14 11:06:24;;;;;;;2.10;0.80;;;;;;;16.85;78.51;97934.56;4969700;28;20034;-58
2023/05/14 11:08:58;;;;;;;1.95;0.70;;;;;;;16.72;77.38;97935.31;4955570;28;20062;-59
2023/05/14 11:11:25;;;;;;;2.25;0.68;;;;;;;16.70;73.96;97900.59;4965752;28;20038;-58
2023/05/14 11:13:54;;;;;;;2.13;0.70;;;;;;;16.72;74.68;97939.78;4971445;28;20084;-59
2023/05/14 11:16:21;;;;;;;;;;;;;;;16.71;73.45;97938.16;4965233;28;20035;-58
2023/05/14 11:18:52;;;;;;;1.88;0.60;;;;;;;16.69;73.94;97935.72;4970264;28;20004;-58
2023/05/14 11:21:20;;;;;;;2.20;0.65;;;;;;;16.71;72.68;97922.41;4967711;28;20077;-59
2023/05/14 11:23:50;;;;;;;3.17;1.08;;;;;;;16.95;75.04;97928.91;4971069;28;20063;-59
2023/05/14 11:26:16;;;;;;;3.38;0.77;;;;;;;16.96;71.22;97925.28;4966475;28;20054;-58
2023/05/14 11:28:49;;;;;;;2.13;0.63;;;;;;;17.03;72.39;97918.19;4969964;28;20031;-58
2023/05/14 11:31:16;;;;;;;2.60;0.77;;;;;;;16.84;69.61;97913.75;4969028;28;20039;-58
2023/05/14 11:33:46;;;;;;;2.53;0.80;;;;;;;16.55;72.77;97876.34;4969693;28;20082;-59
2023/05/14 11:36:12;;;;;;;;;;;;;;;16.74;74.06;97914.13;4956683;28;20125;-59
2023/05/14 11:38:47;;;;;;;2.45;0.70;;;;;;;16.75;70.60;97907.84;4999810;28;19925;-58